createdAt,value
2023-10-01T00:00:44.025Z,101229.28
2023-10-01T00:01:47.642Z,101226.84
2023-10-01T00:02:50.701Z,101217.53
2023-10-01T00:03:55.807Z,101223.47
2023-10-01T00:04:59.100Z,101223.16
2023-10-01T00:06:01.959Z,101218.47
2023-10-01T00:07:05.177Z,101216.56
2023-10-01T00:08:09.937Z,101220.19
2023-10-01T00:09:12.627Z,101219.75
2023-10-01T00:10:15.569Z,101200.22
2023-10-01T00:11:19.621Z,101224.00
2023-10-01T00:12:24.132Z,101227.72
2023-10-01T00:13:27.937Z,101228.75
2023-10-01T00:14:30.923Z,101225.47
2023-10-01T00:15:33.860Z,101229.63
2023-10-01T00:16:40.009Z,101228.03
2023-10-01T00:17:47.508Z,101221.91
2023-10-01T00:18:50.581Z,101225.28
2023-10-01T00:19:53.497Z,101228.97
2023-10-01T00:20:56.741Z,101222.84
2023-10-01T00:22:01.558Z,101220.09
2023-10-01T00:23:05.480Z,101220.09
2023-10-01T00:24:08.712Z,101226.53
2023-10-01T00:25:11.526Z,101225.69
2023-10-01T00:26:14.493Z,101224.84
2023-10-01T00:27:18.813Z,101229.38
2023-10-01T00:28:22.059Z,101223.34
2023-10-01T00:29:25.117Z,101219.19
2023-10-01T00:30:34.701Z,101221.84
2023-10-01T00:31:38.551Z,101216.75
2023-10-01T00:32:41.822Z,101221.22
2023-10-01T00:33:50.897Z,101220.37
2023-10-01T00:34:56.835Z,101219.84
2023-10-01T00:35:59.732Z,101219.13
2023-10-01T00:37:03.849Z,101226.31
2023-10-01T00:38:10.997Z,101218.47
2023-10-01T00:39:14.446Z,101224.72
2023-10-01T00:40:18.551Z,101217.19
2023-10-01T00:41:21.466Z,101222.50
2023-10-01T00:42:27.424Z,101224.31
2023-10-01T00:43:31.335Z,101227.16
2023-10-01T00:44:37.768Z,101230.75
2023-10-01T00:45:40.714Z,101216.44
2023-10-01T00:46:44.725Z,101202.22
2023-10-01T00:47:48.020Z,101226.72
2023-10-01T00:48:50.804Z,101215.69
2023-10-01T00:49:55.746Z,101228.72
2023-10-01T00:51:00.478Z,101228.91
2023-10-01T00:52:04.070Z,101223.84
2023-10-01T00:53:09.035Z,101222.25
2023-10-01T00:54:11.989Z,101205.41
2023-10-01T00:55:15.552Z,101223.00
2023-10-01T00:56:21.678Z,101216.22
2023-10-01T00:57:24.702Z,101219.16
2023-10-01T00:58:27.638Z,101225.41
2023-10-01T00:59:34.190Z,101206.00
2023-10-01T01:00:38.324Z,101224.66
2023-10-01T01:01:41.302Z,101223.94
2023-10-01T01:03:10.274Z,101220.31
2023-10-01T01:04:20.983Z,101216.28
2023-10-01T01:05:26.014Z,101220.75
2023-10-01T01:06:38.007Z,101218.09
2023-10-01T01:07:41.982Z,101214.59
2023-10-01T01:08:53.882Z,101217.13
2023-10-01T01:09:56.810Z,101224.31
2023-10-01T01:11:02.518Z,101193.91
2023-10-01T01:12:06.852Z,101217.53
2023-10-01T01:13:18.139Z,101224.84
2023-10-01T01:14:22.502Z,101195.91
2023-10-01T01:15:25.094Z,101226.53
2023-10-01T01:16:29.453Z,101224.00
2023-10-01T01:17:32.814Z,101230.13
2023-10-01T01:18:38.286Z,101193.47
2023-10-01T01:19:43.745Z,101214.88
2023-10-01T01:20:48.396Z,101223.16
2023-10-01T01:21:51.900Z,101237.56
2023-10-01T01:22:55.879Z,101236.72
2023-10-01T01:23:59.197Z,101203.84
2023-10-01T01:25:02.249Z,101235.03
2023-10-01T01:26:05.216Z,101238.62
2023-10-01T01:27:08.027Z,101211.47
2023-10-01T01:28:14.027Z,101237.66
2023-10-01T01:29:30.428Z,101241.38
2023-10-01T01:30:34.648Z,101241.38
2023-10-01T01:31:47.164Z,101244.56
2023-10-01T01:32:54.646Z,101243.06
2023-10-01T01:33:58.840Z,101236.81
2023-10-01T01:35:03.600Z,101236.81
2023-10-01T01:36:07.159Z,101241.56
2023-10-01T01:37:10.377Z,101244.00
2023-10-01T01:38:13.849Z,101244.00
2023-10-01T01:39:52.679Z,101235.44
2023-10-01T01:40:55.688Z,101250.06
2023-10-01T01:41:58.625Z,101252.72
2023-10-01T01:43:05.572Z,101216.97
2023-10-01T01:44:09.192Z,101214.44
2023-10-01T01:45:26.484Z,101250.25
2023-10-01T01:46:29.389Z,101241.56
2023-10-01T01:47:32.146Z,101246.87
2023-10-01T01:48:38.943Z,101243.37
2023-10-01T01:49:43.576Z,101246.09
2023-10-01T01:50:46.740Z,101246.31
2023-10-01T01:52:00.890Z,101240.28
2023-10-01T01:53:05.395Z,101240.50
2023-10-01T01:54:09.972Z,101249.34
2023-10-01T01:55:24.603Z,101242.38
2023-10-01T01:56:28.833Z,101238.78
2023-10-01T01:57:31.729Z,101243.13
2023-10-01T01:58:34.644Z,101243.44
2023-10-01T01:59:39.385Z,101234.72
2023-10-01T02:01:02.822Z,101237.56
2023-10-01T02:02:08.578Z,101242.12
2023-10-01T02:03:16.179Z,101235.25
2023-10-01T02:04:19.572Z,101237.88
2023-10-01T02:05:29.298Z,101230.03
2023-10-01T02:06:32.456Z,101239.78
2023-10-01T02:07:35.639Z,101240.09
2023-10-01T02:08:51.600Z,101236.56
2023-10-01T02:09:54.674Z,101238.53
2023-10-01T02:10:57.635Z,101231.13
2023-10-01T02:12:00.575Z,101243.31
2023-10-01T02:13:06.295Z,101246.03
2023-10-01T02:14:29.165Z,101238.09
2023-10-01T02:15:33.427Z,101243.37
2023-10-01T02:16:39.606Z,101245.94
2023-10-01T02:17:42.767Z,101238.84
2023-10-01T02:18:58.108Z,101246.69
2023-10-01T02:20:02.349Z,101242.22
2023-10-01T02:21:17.597Z,101245.94
2023-10-01T02:22:22.112Z,101244.34
2023-10-01T02:23:33.731Z,101248.22
2023-10-01T02:24:56.391Z,101234.81
2023-10-01T02:26:01.856Z,101242.47
2023-10-01T02:27:05.442Z,101249.47
2023-10-01T02:28:14.297Z,101249.53
2023-10-01T02:29:17.698Z,101249.84
2023-10-01T02:30:25.326Z,101252.50
2023-10-01T02:31:28.555Z,101245.72
2023-10-01T02:32:31.638Z,101254.50
2023-10-01T02:33:56.851Z,101246.44
2023-10-01T02:35:00.273Z,101257.13
2023-10-01T02:36:03.867Z,101252.25
2023-10-01T02:37:08.638Z,101250.91
2023-10-01T02:38:31.176Z,101253.53
2023-10-01T02:39:33.866Z,101254.19
2023-10-01T02:40:41.429Z,101248.56
2023-10-01T02:42:04.394Z,101256.31
2023-10-01T02:43:08.948Z,101250.37
2023-10-01T02:44:12.499Z,101225.62
2023-10-01T02:45:33.704Z,101236.84
2023-10-01T02:46:36.637Z,101255.66
2023-10-01T02:47:39.855Z,101253.19
2023-10-01T02:48:43.882Z,101247.16
2023-10-01T02:49:54.978Z,101246.50
2023-10-01T02:50:58.277Z,101253.53
2023-10-01T02:52:04.869Z,101249.41
2023-10-01T02:53:09.421Z,101248.00
2023-10-01T02:54:12.571Z,101246.97
2023-10-01T02:55:19.356Z,101253.84
2023-10-01T02:56:27.034Z,101251.66
2023-10-01T02:57:34.902Z,101244.97
2023-10-01T02:58:38.670Z,101245.06
2023-10-01T03:00:01.474Z,101242.31
2023-10-01T03:01:15.295Z,101242.16
2023-10-01T03:02:21.955Z,101243.09
2023-10-01T03:03:34.590Z,101235.53
2023-10-01T03:04:37.957Z,101233.75
2023-10-01T03:05:43.386Z,101234.59
2023-10-01T03:06:57.048Z,101243.28
2023-10-01T03:08:20.273Z,101239.97
2023-10-01T03:09:38.043Z,101250.44
2023-10-01T03:10:41.865Z,101229.69
2023-10-01T03:11:46.078Z,101245.66
2023-10-01T03:12:51.165Z,101246.50
2023-10-01T03:14:05.145Z,101248.38
2023-10-01T03:15:14.000Z,101244.97
2023-10-01T03:16:35.760Z,101248.56
2023-10-01T03:17:52.909Z,101254.03
2023-10-01T03:18:56.416Z,101247.25
2023-10-01T03:20:13.689Z,101240.94
2023-10-01T03:21:20.804Z,101218.06
2023-10-01T03:22:33.124Z,101249.88
2023-10-01T03:23:36.181Z,101248.16
2023-10-01T03:24:46.212Z,101237.72
2023-10-01T03:26:02.098Z,101246.47
2023-10-01T03:27:27.845Z,101249.22
2023-10-01T03:28:55.737Z,101244.22
2023-10-01T03:30:18.581Z,101251.28
2023-10-01T03:31:21.455Z,101251.38
2023-10-01T03:32:30.535Z,101249.59
2023-10-01T03:33:40.978Z,101250.53
2023-10-01T03:34:45.222Z,101253.09
2023-10-01T03:35:49.376Z,101225.69
2023-10-01T03:36:53.704Z,101247.03
2023-10-01T03:38:11.803Z,101244.41
2023-10-01T03:39:27.252Z,101183.97
2023-10-01T03:40:36.980Z,101251.94
2023-10-01T03:42:15.354Z,101252.97
2023-10-01T03:43:20.178Z,101255.59
2023-10-01T03:45:00.898Z,101252.22
2023-10-01T03:46:15.030Z,101256.72
2023-10-01T03:47:20.683Z,101251.72
2023-10-01T03:48:23.371Z,101259.63
2023-10-01T03:49:35.249Z,101264.03
2023-10-01T03:50:47.462Z,101260.66
2023-10-01T03:52:00.299Z,101259.78
2023-10-01T03:53:12.363Z,101263.47
2023-10-01T03:54:15.920Z,101262.59
2023-10-01T03:55:29.273Z,101266.19
2023-10-01T03:56:34.220Z,101269.59
2023-10-01T03:57:53.836Z,101267.81
2023-10-01T03:58:57.472Z,101270.53
2023-10-01T04:00:12.063Z,101262.53
2023-10-01T04:01:28.012Z,101270.34
2023-10-01T04:02:49.417Z,101269.50
2023-10-01T04:03:52.642Z,101272.13
2023-10-01T04:04:59.854Z,101272.84
2023-10-01T04:06:06.550Z,101260.06
2023-10-01T04:07:12.646Z,101266.63
2023-10-01T04:08:16.494Z,101265.06
2023-10-01T04:09:20.428Z,101274.37
2023-10-01T04:10:29.152Z,101282.19
2023-10-01T04:11:51.289Z,101281.28
2023-10-01T04:12:56.388Z,101281.09
2023-10-01T04:14:09.311Z,101277.50
2023-10-01T04:15:28.721Z,101268.97
2023-10-01T04:16:36.340Z,101262.28
2023-10-01T04:17:59.385Z,101269.88
2023-10-01T04:19:02.647Z,101261.69
2023-10-01T04:20:14.836Z,101285.34
2023-10-01T04:21:26.757Z,101291.28
2023-10-01T04:22:31.277Z,101285.16
2023-10-01T04:23:36.672Z,101284.97
2023-10-01T04:24:39.629Z,101287.81
2023-10-01T04:25:44.732Z,101288.53
2023-10-01T04:26:48.302Z,101283.06
2023-10-01T04:27:52.372Z,101285.72
2023-10-01T04:29:00.682Z,101289.12
2023-10-01T04:30:09.504Z,101290.06
2023-10-01T04:31:16.599Z,101286.47
2023-10-01T04:32:20.129Z,101287.78
2023-10-01T04:33:24.653Z,101283.47
2023-10-01T04:34:28.329Z,101291.56
2023-10-01T04:35:31.920Z,101253.25
2023-10-01T04:36:34.918Z,101284.41
2023-10-01T04:37:42.383Z,101296.78
2023-10-01T04:38:47.315Z,101286.09
2023-10-01T04:39:49.981Z,101294.03
2023-10-01T04:40:53.575Z,101285.34
2023-10-01T04:42:00.814Z,101294.81
2023-10-01T04:43:10.436Z,101286.88
2023-10-01T04:44:21.174Z,101289.34
2023-10-01T04:45:24.464Z,101282.13
2023-10-01T04:46:31.789Z,101289.03
2023-10-01T04:47:42.316Z,101290.00
2023-10-01T04:48:46.476Z,101289.88
2023-10-01T04:49:53.363Z,101290.84
2023-10-01T04:50:56.710Z,101289.88
2023-10-01T04:52:02.508Z,101269.69
2023-10-01T04:53:08.714Z,101283.28
2023-10-01T04:54:23.010Z,101287.63
2023-10-01T04:55:29.709Z,101248.53
2023-10-01T04:56:32.382Z,101258.66
2023-10-01T04:57:37.929Z,101285.66
2023-10-01T04:58:42.385Z,101283.75
2023-10-01T04:59:59.106Z,101290.66
2023-10-01T05:01:06.587Z,101289.81
2023-10-01T05:02:23.076Z,101293.88
2023-10-01T05:03:47.040Z,101296.53
2023-10-01T05:04:49.753Z,101296.41
2023-10-01T05:05:52.621Z,101295.09
2023-10-01T05:07:01.965Z,101296.78
2023-10-01T05:08:05.496Z,101297.25
2023-10-01T05:09:09.388Z,101301.25
2023-10-01T05:10:13.489Z,101303.38
2023-10-01T05:11:22.490Z,101303.50
2023-10-01T05:12:32.280Z,101292.62
2023-10-01T05:13:36.342Z,101302.63
2023-10-01T05:14:59.537Z,101307.06
2023-10-01T05:16:07.625Z,101312.56
2023-10-01T05:17:10.671Z,101265.19
2023-10-01T05:18:13.708Z,101314.47
2023-10-01T05:19:20.133Z,101311.72
2023-10-01T05:20:26.717Z,101312.75
2023-10-01T05:21:29.910Z,101313.78
2023-10-01T05:22:47.916Z,101307.84
2023-10-01T05:23:52.196Z,101313.44
2023-10-01T05:24:54.890Z,101307.44
2023-10-01T05:25:58.465Z,101305.09
2023-10-01T05:27:10.573Z,101323.69
2023-10-01T05:28:33.434Z,101315.88
2023-10-01T05:29:40.383Z,101256.09
2023-10-01T05:30:44.186Z,101314.91
2023-10-01T05:31:47.369Z,101327.22
2023-10-01T05:32:52.791Z,101326.34
2023-10-01T05:33:59.784Z,101324.66
2023-10-01T05:35:16.251Z,101315.47
2023-10-01T05:36:20.263Z,101327.41
2023-10-01T05:37:27.573Z,101322.25
2023-10-01T05:38:35.044Z,101325.59
2023-10-01T05:41:10.674Z,101332.50
2023-10-01T05:42:16.108Z,101323.81
2023-10-01T05:43:20.044Z,101284.03
2023-10-01T05:44:22.956Z,101335.97
2023-10-01T05:45:38.481Z,101340.31
2023-10-01T05:46:41.808Z,101339.47
2023-10-01T05:47:56.174Z,101343.72
2023-10-01T05:49:02.358Z,101345.53
2023-10-01T05:50:10.067Z,101342.97
2023-10-01T05:51:16.249Z,101349.94
2023-10-01T05:52:19.211Z,101343.44
2023-10-01T05:53:22.190Z,101344.28
2023-10-01T05:54:25.913Z,101316.25
2023-10-01T05:55:29.562Z,101345.16
2023-10-01T05:56:38.506Z,101345.69
2023-10-01T05:57:41.616Z,101351.66
2023-10-01T05:58:44.653Z,101353.06
2023-10-01T05:59:57.834Z,101351.19
2023-10-01T06:01:15.138Z,101351.84
2023-10-01T06:02:38.795Z,101360.34
2023-10-01T06:03:43.012Z,101351.38
2023-10-01T06:04:45.705Z,101357.78
2023-10-01T06:05:51.533Z,101354.31
2023-10-01T06:06:54.557Z,101313.31
2023-10-01T06:07:57.466Z,101365.31
2023-10-01T06:09:00.888Z,101365.69
2023-10-01T06:10:11.646Z,101368.97
2023-10-01T06:11:17.189Z,101352.94
2023-10-01T06:12:20.344Z,101355.00
2023-10-01T06:13:25.654Z,101349.28
2023-10-01T06:14:47.089Z,101350.25
2023-10-01T06:15:50.137Z,101352.16
2023-10-01T06:16:53.209Z,101355.50
2023-10-01T06:17:57.247Z,101353.41
2023-10-01T06:19:01.597Z,101359.06
2023-10-01T06:20:24.926Z,101355.91
2023-10-01T06:21:34.378Z,101362.97
2023-10-01T06:22:38.411Z,101366.72
2023-10-01T06:23:50.995Z,101368.34
2023-10-01T06:24:55.865Z,101371.28
2023-10-01T06:25:59.872Z,101378.59
2023-10-01T06:27:03.254Z,101369.16
2023-10-01T06:28:11.968Z,101371.81
2023-10-01T06:29:15.433Z,101365.25
2023-10-01T06:30:18.881Z,101367.78
2023-10-01T06:31:22.135Z,101360.78
2023-10-01T06:32:25.271Z,101367.94
2023-10-01T06:33:30.755Z,101363.53
2023-10-01T06:34:34.015Z,101359.97
2023-10-01T06:35:39.673Z,101365.34
2023-10-01T06:36:44.357Z,101360.31
2023-10-01T06:37:51.505Z,101361.22
2023-10-01T06:38:56.790Z,101365.78
2023-10-01T06:40:01.921Z,101361.44
2023-10-01T06:41:07.630Z,101368.34
2023-10-01T06:42:20.491Z,101372.97
2023-10-01T06:43:24.346Z,101382.19
2023-10-01T06:44:27.765Z,101377.19
2023-10-01T06:45:44.013Z,101382.28
2023-10-01T06:46:49.956Z,101388.69
2023-10-01T06:47:53.000Z,101376.28
2023-10-01T06:49:00.504Z,101374.44
2023-10-01T06:50:06.542Z,101377.09
2023-10-01T06:51:09.935Z,101374.19
2023-10-01T06:52:13.919Z,101376.31
2023-10-01T06:53:16.529Z,101374.38
2023-10-01T06:54:19.725Z,101374.16
2023-10-01T06:55:30.153Z,101373.38
2023-10-01T06:56:37.576Z,101389.56
2023-10-01T06:57:40.887Z,101382.31
2023-10-01T06:59:02.950Z,101397.81
2023-10-01T07:00:14.573Z,101397.66
2023-10-01T07:01:35.692Z,101400.91
2023-10-01T07:02:39.726Z,101397.66
2023-10-01T07:03:43.080Z,101401.53
2023-10-01T07:05:11.286Z,101393.28
2023-10-01T07:06:16.365Z,101402.09
2023-10-01T07:07:21.663Z,101399.47
2023-10-01T07:08:38.704Z,101397.75
2023-10-01T07:09:42.784Z,101404.28
2023-10-01T07:10:52.487Z,101403.06
2023-10-01T07:11:57.724Z,101407.97
2023-10-01T07:13:06.418Z,101411.84
2023-10-01T07:14:10.930Z,101403.37
2023-10-01T07:15:14.135Z,101401.69
2023-10-01T07:16:36.798Z,101398.91
2023-10-01T07:17:40.936Z,101364.06
2023-10-01T07:18:45.259Z,101404.78
2023-10-01T07:20:00.962Z,101405.16
2023-10-01T07:21:10.529Z,101399.94
2023-10-01T07:22:16.175Z,101386.22
2023-10-01T07:23:23.438Z,101405.25
2023-10-01T07:24:32.203Z,101396.78
2023-10-01T07:25:44.354Z,101400.25
2023-10-01T07:26:49.406Z,101396.37
2023-10-01T07:27:52.354Z,101407.50
2023-10-01T07:29:00.865Z,101406.78
2023-10-01T07:30:08.177Z,101404.00
2023-10-01T07:31:10.912Z,101397.50
2023-10-01T07:32:14.435Z,101402.25
2023-10-01T07:33:22.417Z,101387.22
2023-10-01T07:34:28.257Z,101404.41
2023-10-01T07:35:31.000Z,101399.44
2023-10-01T07:36:33.842Z,101399.59
2023-10-01T07:37:38.920Z,101387.50
2023-10-01T07:38:53.837Z,101379.72
2023-10-01T07:40:01.260Z,101394.91
2023-10-01T07:41:12.523Z,101396.31
2023-10-01T07:42:18.659Z,101395.09
2023-10-01T07:43:22.940Z,101402.94
2023-10-01T07:44:28.531Z,101399.41
2023-10-01T07:45:31.904Z,101403.56
2023-10-01T07:46:34.666Z,101401.25
2023-10-01T07:47:39.382Z,101409.16
2023-10-01T07:48:48.877Z,101412.25
2023-10-01T07:49:51.737Z,101400.84
2023-10-01T07:50:56.948Z,101408.09
2023-10-01T07:52:02.326Z,101397.56
2023-10-01T07:53:05.391Z,101394.03
2023-10-01T07:54:11.545Z,101390.06
2023-10-01T07:55:30.808Z,101371.94
2023-10-01T07:56:34.368Z,101405.41
2023-10-01T07:57:48.326Z,101389.69
2023-10-01T07:59:12.885Z,101389.66
2023-10-01T08:00:30.020Z,101400.81
2023-10-01T08:01:43.933Z,101394.06
2023-10-01T08:03:05.897Z,101394.25
2023-10-01T08:04:32.389Z,101397.91
2023-10-01T08:05:39.972Z,101379.63
2023-10-01T08:06:45.790Z,101401.59
2023-10-01T08:07:48.791Z,101409.16
2023-10-01T08:08:58.859Z,101406.41
2023-10-01T08:10:05.965Z,101403.06
2023-10-01T08:11:28.914Z,101398.47
2023-10-01T08:12:41.372Z,101389.13
2023-10-01T08:13:44.278Z,101383.56
2023-10-01T08:15:07.546Z,101365.91
2023-10-01T08:16:14.836Z,101392.31
2023-10-01T08:17:21.907Z,101394.81
2023-10-01T08:18:36.235Z,101391.78
2023-10-01T08:19:46.399Z,101390.78
2023-10-01T08:21:00.136Z,101384.31
2023-10-01T08:22:14.908Z,101382.28
2023-10-01T08:23:24.541Z,101376.22
2023-10-01T08:24:37.204Z,101374.28
2023-10-01T08:25:43.953Z,101377.59
2023-10-01T08:27:13.718Z,101379.94
2023-10-01T08:28:16.634Z,101360.81
2023-10-01T08:29:19.338Z,101382.75
2023-10-01T08:30:40.155Z,101382.25
2023-10-01T08:31:50.066Z,101386.37
2023-10-01T08:33:13.018Z,101390.06
2023-10-01T08:34:45.733Z,101398.84
2023-10-01T08:35:58.258Z,101398.44
2023-10-01T08:37:10.582Z,101401.97
2023-10-01T08:38:17.051Z,101399.28
2023-10-01T08:39:35.104Z,101401.62
2023-10-01T08:40:42.461Z,101404.59
2023-10-01T08:41:52.285Z,101385.63
2023-10-01T08:43:00.048Z,101405.03
2023-10-01T08:44:11.220Z,101404.88
2023-10-01T08:45:18.446Z,101403.31
2023-10-01T08:46:33.392Z,101405.22
2023-10-01T08:47:38.733Z,101406.72
2023-10-01T08:48:44.259Z,101403.66
2023-10-01T08:49:47.782Z,101414.03
2023-10-01T08:50:53.100Z,101404.88
2023-10-01T08:52:16.235Z,101417.47
2023-10-01T08:53:19.513Z,101409.41
2023-10-01T08:54:26.321Z,101413.72
2023-10-01T08:55:41.592Z,101411.78
2023-10-01T08:56:46.403Z,101419.47
2023-10-01T08:57:54.089Z,101412.44
2023-10-01T08:59:01.149Z,101408.47
2023-10-01T09:00:16.600Z,101408.34
2023-10-01T09:01:22.537Z,101416.06
2023-10-01T09:02:25.710Z,101415.28
2023-10-01T09:03:30.843Z,101409.94
2023-10-01T09:04:46.997Z,101420.41
2023-10-01T09:06:02.718Z,101420.59
2023-10-01T09:07:06.720Z,101423.63
2023-10-01T09:08:27.782Z,101413.37
2023-10-01T09:09:53.245Z,101415.66
2023-10-01T09:10:56.528Z,101411.94
2023-10-01T09:12:00.150Z,101413.72
2023-10-01T09:13:05.303Z,101423.13
2023-10-01T09:14:22.334Z,101417.53
2023-10-01T09:15:30.271Z,101414.81
2023-10-01T09:16:34.145Z,101416.56
2023-10-01T09:17:58.107Z,101403.53
2023-10-01T09:19:06.394Z,101420.34
2023-10-01T09:20:10.418Z,101424.69
2023-10-01T09:21:29.967Z,101419.91
2023-10-01T09:22:33.149Z,101415.44
2023-10-01T09:23:59.959Z,101416.34
2023-10-01T09:25:22.453Z,101421.53
2023-10-01T09:26:46.986Z,101417.78
2023-10-01T09:28:20.998Z,101419.81
2023-10-01T09:29:25.298Z,101431.28
2023-10-01T09:30:28.307Z,101416.97
2023-10-01T09:31:32.071Z,101417.97
2023-10-01T09:32:53.964Z,101425.78
2023-10-01T09:34:30.817Z,101424.81
2023-10-01T09:36:04.025Z,101389.34
2023-10-01T09:37:34.435Z,101432.53
2023-10-01T09:38:59.411Z,101426.53
2023-10-01T09:40:15.252Z,101428.16
2023-10-01T09:41:29.083Z,101422.22
2023-10-01T09:42:45.851Z,101414.78
2023-10-01T09:43:50.816Z,101420.84
2023-10-01T09:44:55.137Z,101419.19
2023-10-01T09:46:02.325Z,101403.94
2023-10-01T09:47:11.820Z,101412.69
2023-10-01T09:48:37.593Z,101379.19
2023-10-01T09:49:41.720Z,101418.59
2023-10-01T09:50:45.106Z,101417.91
2023-10-01T09:51:54.053Z,101423.66
2023-10-01T09:53:01.236Z,101418.06
2023-10-01T09:54:05.830Z,101414.25
2023-10-01T09:55:12.212Z,101418.22
2023-10-01T09:56:30.394Z,101424.25
2023-10-01T09:57:38.502Z,101420.47
2023-10-01T09:58:47.953Z,101422.12
2023-10-01T09:59:52.393Z,101413.94
2023-10-01T10:01:00.445Z,101411.03
2023-10-01T10:02:05.544Z,101405.25
2023-10-01T10:03:12.862Z,101415.41
2023-10-01T10:04:21.937Z,101412.78
2023-10-01T10:05:27.880Z,101406.47
2023-10-01T10:06:34.134Z,101397.47
2023-10-01T10:07:42.325Z,101408.06
2023-10-01T10:08:46.175Z,101401.25
2023-10-01T10:09:49.170Z,101400.03
2023-10-01T10:10:57.024Z,101401.12
2023-10-01T10:12:03.657Z,101380.81
2023-10-01T10:13:48.046Z,101402.22
2023-10-01T10:14:58.240Z,101397.13
2023-10-01T10:16:02.194Z,101402.34
2023-10-01T10:17:20.235Z,101405.88
2023-10-01T10:18:24.846Z,101407.78
2023-10-01T10:19:32.401Z,101406.13
2023-10-01T10:20:59.121Z,101396.37
2023-10-01T10:22:10.642Z,101392.19
2023-10-01T10:23:17.581Z,101381.56
2023-10-01T10:24:29.940Z,101386.94
2023-10-01T10:25:32.710Z,101388.25
2023-10-01T10:26:58.183Z,101389.94
2023-10-01T10:28:07.786Z,101380.34
2023-10-01T10:29:14.024Z,101385.59
2023-10-01T10:30:20.960Z,101376.06
2023-10-01T10:31:35.088Z,101381.78
2023-10-01T10:32:46.105Z,101386.41
2023-10-01T10:34:31.043Z,101373.66
2023-10-01T10:35:41.210Z,101372.69
2023-10-01T10:36:55.698Z,101378.25
2023-10-01T10:37:58.920Z,101373.56
2023-10-01T10:39:01.819Z,101377.44
2023-10-01T10:40:14.900Z,101378.75
2023-10-01T10:41:21.010Z,101381.03
2023-10-01T10:42:30.641Z,101379.37
2023-10-01T10:43:37.500Z,101378.44
2023-10-01T10:45:22.592Z,101373.47
2023-10-01T10:46:26.727Z,101377.13
2023-10-01T10:47:29.505Z,101366.06
2023-10-01T10:49:01.604Z,101372.59
2023-10-01T10:50:12.726Z,101371.84
2023-10-01T10:51:45.326Z,101372.41
2023-10-01T10:52:51.364Z,101371.84
2023-10-01T10:53:59.473Z,101367.62
2023-10-01T10:55:19.236Z,101360.69
2023-10-01T10:56:36.700Z,101367.06
2023-10-01T10:57:49.527Z,101361.06
2023-10-01T10:59:13.484Z,101359.94
2023-10-01T11:00:26.224Z,101363.19
2023-10-01T11:01:44.657Z,101347.59
2023-10-01T11:02:54.932Z,101345.87
2023-10-01T11:03:59.322Z,101359.56
2023-10-01T11:05:07.387Z,101344.69
2023-10-01T11:06:24.922Z,101357.16
2023-10-01T11:07:37.013Z,101360.28
2023-10-01T11:08:39.905Z,101364.34
2023-10-01T11:09:43.204Z,101366.72
2023-10-01T11:10:46.792Z,101362.09
2023-10-01T11:11:51.043Z,101367.69
2023-10-01T11:12:56.041Z,101368.44
2023-10-01T11:14:02.278Z,101375.34
2023-10-01T11:15:24.816Z,101377.03
2023-10-01T11:16:40.959Z,101378.25
2023-10-01T11:17:44.082Z,101381.50
2023-10-01T11:18:49.052Z,101378.69
2023-10-01T11:19:59.577Z,101381.25
2023-10-01T11:21:03.144Z,101377.41
2023-10-01T11:22:07.972Z,101379.06
2023-10-01T11:23:11.080Z,101363.78
2023-10-01T11:24:18.096Z,101375.81
2023-10-01T11:25:20.902Z,101361.63
2023-10-01T11:26:31.141Z,101370.75
2023-10-01T11:27:46.345Z,101381.50
2023-10-01T11:28:49.259Z,101379.53
2023-10-01T11:29:59.557Z,101382.16
2023-10-01T11:31:18.767Z,101376.34
2023-10-01T11:32:42.383Z,101376.47
2023-10-01T11:33:49.300Z,101374.84
2023-10-01T11:34:57.343Z,101369.34
2023-10-01T11:36:09.847Z,101367.28
2023-10-01T11:37:19.655Z,101366.69
2023-10-01T11:38:22.707Z,101363.34
2023-10-01T11:39:39.612Z,101361.41
2023-10-01T11:41:02.411Z,101360.69
2023-10-01T11:42:21.324Z,101356.88
2023-10-01T11:43:29.199Z,101353.88
2023-10-01T11:44:37.408Z,101352.25
2023-10-01T11:45:47.328Z,101350.94
2023-10-01T11:46:58.893Z,101343.72
2023-10-01T11:48:07.805Z,101349.53
2023-10-01T11:49:12.004Z,101348.31
2023-10-01T11:50:15.071Z,101337.31
2023-10-01T11:51:28.209Z,101343.69
2023-10-01T11:52:31.131Z,101337.56
2023-10-01T11:53:57.062Z,101331.69
2023-10-01T11:55:00.130Z,101323.88
2023-10-01T11:56:03.642Z,101333.62
2023-10-01T11:57:07.323Z,101334.72
2023-10-01T11:58:17.530Z,101336.88
2023-10-01T11:59:20.857Z,101327.41
2023-10-01T12:00:43.084Z,101334.97
2023-10-01T12:01:51.485Z,101287.09
2023-10-01T12:02:59.828Z,101334.22
2023-10-01T12:04:02.934Z,101340.94
2023-10-01T12:05:07.772Z,101337.31
2023-10-01T12:06:10.899Z,101315.56
2023-10-01T12:07:18.396Z,101329.09
2023-10-01T12:08:36.240Z,101334.91
2023-10-01T12:09:41.637Z,101339.09
2023-10-01T12:10:45.899Z,101296.06
2023-10-01T12:12:05.229Z,101324.75
2023-10-01T12:13:09.238Z,101332.09
2023-10-01T12:14:19.228Z,101341.78
2023-10-01T12:15:57.894Z,101328.28
2023-10-01T12:17:02.512Z,101342.19
2023-10-01T12:18:09.676Z,101329.19
2023-10-01T12:19:25.589Z,101340.31
2023-10-01T12:20:31.906Z,101337.12
2023-10-01T12:21:35.295Z,101325.22
2023-10-01T12:22:38.077Z,101346.38
2023-10-01T12:23:50.660Z,101339.38
2023-10-01T12:24:58.281Z,101339.75
2023-10-01T12:26:03.577Z,101330.88
2023-10-01T12:27:08.855Z,101333.53
2023-10-01T12:28:16.850Z,101343.44
2023-10-01T12:29:19.912Z,101269.06
2023-10-01T12:30:31.782Z,101327.22
2023-10-01T12:31:35.190Z,101340.94
2023-10-01T12:32:49.472Z,101335.09
2023-10-01T12:34:00.228Z,101337.91
2023-10-01T12:35:19.758Z,101337.06
2023-10-01T12:36:41.771Z,101331.72
2023-10-01T12:37:44.664Z,101334.25
2023-10-01T12:38:47.944Z,101336.19
2023-10-01T12:39:52.147Z,101334.84
2023-10-01T12:40:55.333Z,101334.41
2023-10-01T12:41:58.580Z,101333.34
2023-10-01T12:43:26.208Z,101336.47
2023-10-01T12:44:29.988Z,101330.94
2023-10-01T12:45:33.042Z,101329.97
2023-10-01T12:46:52.859Z,101327.69
2023-10-01T12:47:56.554Z,101326.56
2023-10-01T12:49:28.806Z,101322.13
2023-10-01T12:50:31.469Z,101325.88
2023-10-01T12:51:35.402Z,101333.50
2023-10-01T12:52:38.773Z,101325.34
2023-10-01T12:53:51.116Z,101322.16
2023-10-01T12:54:59.543Z,101322.84
2023-10-01T12:56:06.230Z,101317.59
2023-10-01T12:57:19.916Z,101327.69
2023-10-01T12:58:49.762Z,101306.75
2023-10-01T13:00:12.764Z,101313.69
2023-10-01T13:01:35.851Z,101307.78
2023-10-01T13:02:50.449Z,101311.63
2023-10-01T13:03:53.350Z,101255.72
2023-10-01T13:05:16.364Z,101302.97
2023-10-01T13:06:19.257Z,101303.25
2023-10-01T13:07:37.013Z,101309.03
2023-10-01T13:08:42.673Z,101307.72
2023-10-01T13:09:45.616Z,101300.00